Time;durP1;ratioP1;P1;durP2;ratioP2;P2;SDS_P1;SDS_P2;PMS_P1;PMS_P2;Temp;Humidity;BMP_temperature;BMP_pressure;BME280_temperature;BME280_humidity;BME280_pressure;Samples;Min_cycle;Max_cycle;Signal;HPM_P1;HPM_P2
2023/05/09 00:01:44;;;;;;;9.70;4.73;;;14.40;98.00;;;;;;5034004;28;20462;-62
2023/05/09 00:04:11;;;;;;;8.90;4.10;;;14.40;98.00;;;;;;5033882;28;20450;-62
2023/05/09 00:06:38;;;;;;;12.00;5.27;;;14.40;98.00;;;;;;5034139;28;20800;-62
2023/05/09 00:09:06;;;;;;;9.20;4.97;;;14.40;98.00;;;;;;5016444;28;20466;-61
2023/05/09 00:11:33;;;;;;;11.07;5.33;;;14.40;98.00;;;;;;5033841;28;20450;-61
2023/05/09 00:14:02;;;;;;;12.63;5.87;;;14.30;98.00;;;;;;5032329;28;20455;-62
2023/05/09 00:16:31;;;;;;;11.77;5.33;;;14.20;98.00;;;;;;5033753;28;20956;-62
2023/05/09 00:18:58;;;;;;;10.53;5.70;;;14.10;98.00;;;;;;5033437;28;20482;-61
2023/05/09 00:21:27;;;;;;;10.33;5.30;;;14.10;98.00;;;;;;5033514;28;20465;-62
2023/05/09 00:23:54;;;;;;;12.40;5.30;;;14.10;98.00;;;;;;5016156;28;20462;-61
2023/05/09 00:26:21;;;;;;;13.67;5.77;;;14.00;98.00;;;;;;5033475;28;20454;-61
2023/05/09 00:28:49;;;;;;;11.67;5.47;;;14.00;98.00;;;;;;5033360;28;20915;-62
2023/05/09 00:31:17;;;;;;;18.50;6.73;;;14.00;98.00;;;;;;5032741;28;20459;-62
2023/05/09 00:33:45;;;;;;;10.73;5.10;;;14.10;98.00;;;;;;5032723;28;20534;-61
2023/05/09 00:36:12;;;;;;;16.80;5.80;;;14.00;98.00;;;;;;5014758;28;20455;-61
2023/05/09 00:38:39;;;;;;;10.77;5.17;;;14.00;98.00;;;;;;5033193;28;20496;-61
2023/05/09 00:41:06;;;;;;;11.80;5.90;;;14.00;98.00;;;;;;5033599;28;20457;-61
2023/05/09 00:43:34;;;;;;;12.03;5.83;;;13.90;98.00;;;;;;5032913;28;20462;-61
2023/05/09 00:46:01;;;;;;;12.83;5.83;;;13.90;98.00;;;;;;5033252;28;20458;-61
2023/05/09 00:48:29;;;;;;;12.50;5.93;;;14.00;98.00;;;;;;5033124;28;20454;-62
2023/05/09 00:51:00;;;;;;;13.80;6.17;;;14.00;98.00;;;;;;5032967;28;20462;-61
2023/05/09 00:53:27;;;;;;;12.10;5.50;;;14.00;98.00;;;;;;5033039;28;20461;-61
2023/05/09 00:55:56;;;;;;;12.97;6.30;;;14.00;98.00;;;;;;5015500;28;20450;-62
2023/05/09 00:58:24;;;;;;;13.37;5.90;;;14.10;98.00;;;;;;5032879;28;20490;-63
2023/05/09 01:00:51;;;;;;;10.20;5.40;;;14.00;98.00;;;;;;5032781;28;20466;-62
2023/05/09 01:03:18;;;;;;;13.20;5.77;;;14.00;98.00;;;;;;5032957;28;20472;-61
2023/05/09 01:05:55;;;;;;;10.90;5.20;;;14.00;98.00;;;;;;5032649;28;20458;-61
2023/05/09 01:08:41;;;;;;;10.67;5.57;;;14.00;98.00;;;;;;5032759;28;20552;-61
2023/05/09 01:11:12;;;;;;;11.50;5.43;;;13.90;98.00;;;;;;5032661;28;20470;-62
2023/05/09 01:13:49;;;;;;;10.70;4.80;;;14.00;98.00;;;;;;5032560;28;20720;-61
2023/05/09 01:16:24;;;;;;;8.57;4.70;;;13.90;98.00;;;;;;5032593;28;20462;-62
2023/05/09 01:19:01;;;;;;;11.90;5.93;;;13.90;98.00;;;;;;5032351;28;20482;-63
2023/05/09 01:21:32;;;;;;;10.40;5.37;;;13.90;98.00;;;;;;5032528;28;20466;-61
2023/05/09 01:24:31;;;;;;;9.50;5.33;;;13.80;98.00;;;;;;5032360;28;20472;-62
2023/05/09 01:27:20;;;;;;;11.83;5.30;;;13.70;98.00;;;;;;5029569;28;20467;-62
2023/05/09 01:29:56;;;;;;;9.00;4.87;;;13.60;98.00;;;;;;5032218;28;20979;-61
2023/05/09 01:32:26;;;;;;;9.70;5.20;;;13.50;98.00;;;;;;5032298;28;20454;-61
2023/05/09 01:34:56;;;;;;;10.47;5.33;;;13.40;98.00;;;;;;5032193;28;20477;-60
2023/05/09 01:37:29;;;;;;;12.63;5.50;;;13.30;98.00;;;;;;5032528;28;20449;-62
2023/05/09 01:40:00;;;;;;;13.40;6.23;;;13.30;98.00;;;;;;5032112;28;20530;-61
2023/05/09 01:42:30;;;;;;;12.77;6.10;;;13.40;98.00;;;;;;5032017;28;20553;-62
2023/05/09 01:45:00;;;;;;;15.03;5.80;;;13.30;98.00;;;;;;5032083;28;20466;-61
2023/05/09 01:47:28;;;;;;;13.63;6.43;;;13.30;98.00;;;;;;5032133;28;20819;-62
2023/05/09 01:49:56;;;;;;;15.00;5.80;;;13.40;98.00;;;;;;5031783;28;20464;-60
2023/05/09 01:52:25;;;;;;;11.73;5.67;;;13.30;98.00;;;;;;5031868;28;20551;-61
2023/05/09 01:54:52;;;;;;;17.77;6.00;;;13.50;98.00;;;;;;5031706;28;20539;-61
2023/05/09 01:57:20;;;;;;;12.30;5.93;;;13.40;98.00;;;;;;5014168;28;20453;-61
2023/05/09 01:59:48;;;;;;;11.90;5.50;;;13.40;98.00;;;;;;5031629;28;21011;-61
2023/05/09 02:02:18;;;;;;;13.50;6.10;;;13.30;98.00;;;;;;5031881;28;20458;-61
2023/05/09 02:04:47;;;;;;;12.80;5.83;;;13.20;98.00;;;;;;5031671;28;20460;-62
2023/05/09 02:07:15;;;;;;;13.77;6.20;;;13.20;98.00;;;;;;5031699;28;20459;-62
2023/05/09 02:09:44;;;;;;;13.70;5.87;;;13.20;98.00;;;;;;5031520;28;20830;-61
2023/05/09 02:12:11;;;;;;;11.07;5.50;;;13.20;98.00;;;;;;5031478;28;20461;-61
2023/05/09 02:14:38;;;;;;;12.63;5.77;;;13.20;98.00;;;;;;5031516;28;20456;-62
2023/05/09 02:17:08;;;;;;;13.30;5.87;;;13.40;98.00;;;;;;5031565;28;20467;-61
2023/05/09 02:19:36;;;;;;;11.10;5.07;;;13.40;98.00;;;;;;5031300;28;20492;-61
2023/05/09 02:22:04;;;;;;;12.73;5.70;;;13.60;98.00;;;;;;5031476;28;20472;-61
2023/05/09 02:24:34;;;;;;;11.50;5.70;;;13.60;98.00;;;;;;5031401;28;20453;-61
2023/05/09 02:27:02;;;;;;;13.30;5.77;;;13.50;98.00;;;;;;5031447;28;20497;-62
2023/05/09 02:29:38;;;;;;;13.23;5.47;;;13.40;98.00;;;;;;5031436;28;20509;-61
2023/05/09 02:32:08;;;;;;;11.50;5.50;;;13.30;98.00;;;;;;5031597;28;20458;-61
2023/05/09 02:34:39;;;;;;;12.47;5.50;;;13.30;98.00;;;;;;5031299;28;20535;-61
2023/05/09 02:37:07;;;;;;;14.17;5.97;;;13.10;98.00;;;;;;5031477;28;20463;-61
2023/05/09 02:39:35;;;;;;;10.60;5.30;;;13.20;98.00;;;;;;5030969;28;21042;-61
2023/05/09 02:42:07;;;;;;;12.40;5.90;;;13.20;98.00;;;;;;5031175;28;20550;-61
2023/05/09 02:44:35;;;;;;;14.10;5.50;;;13.10;98.00;;;;;;5031125;28;20461;-61
2023/05/09 02:47:03;;;;;;;13.53;5.80;;;13.10;98.00;;;;;;5031023;28;20456;-62
2023/05/09 02:49:30;;;;;;;12.93;5.07;;;13.10;98.00;;;;;;5031045;28;20458;-61
2023/05/09 02:51:59;;;;;;;11.00;5.27;;;13.00;98.00;;;;;;5031277;28;20834;-62
2023/05/09 02:54:26;;;;;;;13.77;5.83;;;13.10;98.00;;;;;;5030944;28;20465;-61
2023/05/09 02:56:53;;;;;;;17.10;6.40;;;13.10;98.00;;;;;;5035156;28;20456;-61
2023/05/09 02:59:20;;;;;;;16.23;5.80;;;13.10;98.00;;;;;;5034849;28;20489;-61
2023/05/09 03:01:47;;;;;;;10.37;5.30;;;13.10;98.00;;;;;;5035059;28;20461;-61
2023/05/09 03:04:15;;;;;;;12.57;5.60;;;13.20;98.00;;;;;;5035035;28;20460;-61
2023/05/09 03:06:42;;;;;;;13.27;6.30;;;13.20;98.00;;;;;;5034978;28;20502;-62
2023/05/09 03:09:10;;;;;;;11.67;5.67;;;13.40;98.00;;;;;;5034878;28;20468;-61
2023/05/09 03:11:38;;;;;;;12.33;5.90;;;13.40;98.00;;;;;;5035111;28;20454;-63
2023/05/09 03:14:07;;;;;;;12.33;5.03;;;13.50;98.00;;;;;;5034737;28;20465;-62
2023/05/09 03:16:34;;;;;;;12.37;5.67;;;13.60;98.00;;;;;;5034882;28;20466;-61
2023/05/09 03:19:01;;;;;;;12.50;6.20;;;13.60;98.00;;;;;;5034591;28;20846;-61
2023/05/09 03:21:28;;;;;;;11.60;5.60;;;13.50;98.00;;;;;;5034995;28;20454;-61
2023/05/09 03:23:58;;;;;;;16.23;6.80;;;13.60;98.00;;;;;;5034607;28;20464;-62
2023/05/09 03:26:27;;;;;;;11.17;5.47;;;13.60;98.00;;;;;;5035013;28;20467;-61
2023/05/09 03:28:54;;;;;;;12.20;5.60;;;13.60;98.00;;;;;;5034596;28;20460;-60
2023/05/09 03:31:22;;;;;;;15.77;6.47;;;13.50;98.00;;;;;;5034667;28;20466;-62
2023/05/09 03:33:49;;;;;;;13.73;6.53;;;13.40;98.00;;;;;;5034446;28;20453;-62
2023/05/09 03:36:16;;;;;;;15.13;6.67;;;13.40;98.00;;;;;;5034576;28;20457;-61
2023/05/09 03:38:44;;;;;;;13.33;6.10;;;13.40;98.00;;;;;;5034160;28;20467;-62
2023/05/09 03:41:12;;;;;;;10.83;5.33;;;13.30;98.00;;;;;;5034439;28;20470;-62
2023/05/09 03:43:40;;;;;;;11.93;6.00;;;13.20;98.00;;;;;;5034182;28;20465;-61
2023/05/09 03:46:08;;;;;;;11.67;5.33;;;13.10;98.00;;;;;;5034281;28;20520;-62
2023/05/09 03:48:35;;;;;;;10.57;5.90;;;13.10;98.00;;;;;;5034172;28;20454;-61
2023/05/09 03:51:02;;;;;;;15.20;6.23;;;13.20;98.00;;;;;;5034103;28;20465;-61
2023/05/09 03:53:29;;;;;;;11.73;5.77;;;13.20;98.00;;;;;;5034094;28;20886;-62
2023/05/09 03:55:56;;;;;;;10.70;5.37;;;13.20;98.00;;;;;;5033988;28;20977;-61
2023/05/09 03:58:23;;;;;;;19.90;5.90;;;13.20;98.00;;;;;;5033903;28;20473;-60
2023/05/09 04:00:52;;;;;;;12.30;6.40;;;13.20;98.00;;;;;;5033847;28;20484;-61
2023/05/09 04:03:19;;;;;;;13.23;6.67;;;13.10;98.00;;;;;;5034000;28;20461;-61
2023/05/09 04:05:46;;;;;;;9.67;5.30;;;13.00;98.00;;;;;;5033589;28;20612;-62
2023/05/09 04:08:14;;;;;;;16.07;6.10;;;13.00;98.00;;;;;;5033746;28;20456;-62
2023/05/09 04:10:41;;;;;;;13.03;5.63;;;13.20;98.00;;;;;;5034086;28;20467;-62
2023/05/09 04:13:08;;;;;;;12.83;5.70;;;13.30;98.00;;;;;;5033954;28;20865;-61
2023/05/09 04:15:35;;;;;;;10.93;5.00;;;13.30;98.00;;;;;;5033881;28;20458;-61
2023/05/09 04:18:04;;;;;;;11.27;5.20;;;13.40;98.00;;;;;;5033725;28;20454;-61
2023/05/09 04:20:31;;;;;;;10.77;5.43;;;13.30;98.00;;;;;;5033764;28;20535;-63
2023/05/09 04:22:58;;;;;;;13.77;6.50;;;13.20;98.00;;;;;;5033727;28;20477;-61
2023/05/09 04:25:25;;;;;;;11.67;5.60;;;13.30;98.00;;;;;;5033603;28;20484;-62
2023/05/09 04:27:52;;;;;;;11.93;5.40;;;13.40;98.00;;;;;;5033681;28;20824;-61
2023/05/09 04:30:20;;;;;;;11.60;5.70;;;13.50;98.00;;;;;;5033445;28;20465;-63
2023/05/09 04:32:47;;;;;;;10.70;5.00;;;13.40;98.00;;;;;;5033252;28;20486;-62
2023/05/09 04:35:16;;;;;;;13.63;5.90;;;13.30;98.00;;;;;;5033314;28;20550;-61
2023/05/09 04:37:43;;;;;;;14.50;5.80;;;13.30;98.00;;;;;;5033295;28;20477;-62
2023/05/09 04:40:11;;;;;;;15.80;6.57;;;13.20;98.00;;;;;;5033097;28;20895;-61
2023/05/09 04:42:38;;;;;;;10.80;5.37;;;13.30;98.00;;;;;;5033241;28;20456;-61
2023/05/09 04:45:06;;;;;;;13.37;6.37;;;13.30;98.00;;;;;;5033116;28;20489;-61
2023/05/09 04:47:33;;;;;;;16.87;6.17;;;13.30;98.00;;;;;;5033103;28;20477;-60
2023/05/09 04:50:00;;;;;;;14.57;6.03;;;13.30;98.00;;;;;;5015309;28;20466;-62
2023/05/09 04:52:29;;;;;;;15.43;6.57;;;13.30;98.00;;;;;;5033302;28;20956;-61
2023/05/09 04:54:56;;;;;;;15.10;7.47;;;13.40;98.00;;;;;;5033118;28;20741;-61
2023/05/09 04:57:23;;;;;;;17.80;6.87;;;13.50;98.00;;;;;;5032604;28;20486;-60
2023/05/09 04:59:52;;;;;;;17.33;7.47;;;13.60;98.00;;;;;;5032818;28;20497;-62
2023/05/09 05:02:21;;;;;;;14.67;6.97;;;13.70;98.00;;;;;;5032880;28;20470;-60
2023/05/09 05:04:48;;;;;;;13.13;6.90;;;13.90;98.00;;;;;;5032675;28;20457;-61
2023/05/09 05:07:15;;;;;;;16.00;6.83;;;14.10;98.00;;;;;;5032791;28;20457;-62
2023/05/09 05:09:46;;;;;;;18.83;7.07;;;14.20;98.00;;;;;;5032735;28;20478;-61
2023/05/09 05:12:13;;;;;;;15.60;7.13;;;14.40;98.00;;;;;;5032980;28;20842;-62
2023/05/09 05:14:40;;;;;;;11.33;5.87;;;14.40;98.00;;;;;;5032751;28;20494;-62
2023/05/09 05:17:07;;;;;;;17.60;7.53;;;14.40;98.00;;;;;;5032676;28;20462;-62
2023/05/09 05:19:35;;;;;;;17.53;8.03;;;14.60;98.00;;;;;;5031943;28;20488;-61
2023/05/09 05:22:02;;;;;;;15.80;6.70;;;14.70;98.00;;;;;;5032622;28;20464;-61
2023/05/09 05:24:29;;;;;;;12.77;6.23;;;14.60;98.00;;;;;;5032464;28;20885;-61
2023/05/09 05:26:58;;;;;;;14.77;6.00;;;14.80;98.00;;;;;;5032526;28;20970;-61
2023/05/09 05:29:26;;;;;;;11.77;5.70;;;14.70;98.00;;;;;;5032239;28;20461;-62
2023/05/09 05:31:53;;;;;;;11.00;5.57;;;14.70;98.00;;;;;;5032350;28;20450;-61
2023/05/09 05:34:21;;;;;;;13.60;5.70;;;14.60;98.00;;;;;;5032555;28;20460;-62
2023/05/09 05:36:48;;;;;;;11.20;5.57;;;14.50;98.00;;;;;;5032555;28;20455;-61
2023/05/09 05:39:16;;;;;;;12.57;6.60;;;14.50;98.00;;;;;;5032425;28;20450;-61
2023/05/09 05:41:43;;;;;;;15.97;6.20;;;14.50;98.00;;;;;;5032156;28;20481;-61
2023/05/09 05:44:11;;;;;;;18.70;6.33;;;14.60;98.00;;;;;;5032034;28;20469;-62
2023/05/09 05:46:38;;;;;;;18.10;6.10;;;14.80;98.00;;;;;;5032105;28;20941;-61
2023/05/09 05:49:07;;;;;;;14.00;6.47;;;14.80;98.00;;;;;;5033035;28;20458;-61
2023/05/09 05:51:34;;;;;;;18.90;7.23;;;14.90;98.00;;;;;;5032769;28;20463;-62
2023/05/09 05:54:01;;;;;;;20.20;6.97;;;14.90;98.00;;;;;;5031877;28;20528;-62
2023/05/09 05:56:28;;;;;;;15.43;6.57;;;14.90;98.00;;;;;;5033060;28;20866;-61
2023/05/09 05:58:55;;;;;;;13.63;7.00;;;15.00;98.00;;;;;;5015052;28;20482;-62
2023/05/09 06:01:31;;;;;;;18.10;7.63;;;15.20;98.00;;;;;;5031881;28;20490;-59
2023/05/09 06:03:58;;;;;;;19.87;7.70;;;15.40;98.00;;;;;;5031792;28;20473;-59
2023/05/09 06:06:26;;;;;;;16.77;7.63;;;15.50;98.00;;;;;;5031947;28;20466;-60
2023/05/09 06:08:54;;;;;;;19.97;9.43;;;15.60;98.00;;;;;;5031470;28;20450;-60
2023/05/09 06:11:21;;;;;;;24.17;9.40;;;15.60;98.00;;;;;;5031899;28;20477;-60
2023/05/09 06:13:48;;;;;;;20.33;8.53;;;15.80;98.00;;;;;;5031913;28;20523;-60
2023/05/09 06:16:15;;;;;;;25.67;9.87;;;15.90;98.00;;;;;;5031632;28;20469;-62
2023/05/09 06:18:43;;;;;;;21.37;8.30;;;16.20;98.00;;;;;;5031532;28;20459;-59
2023/05/09 06:21:11;;;;;;;17.00;7.60;;;16.30;98.00;;;;;;5031570;28;20490;-59
2023/05/09 06:23:38;;;;;;;22.07;9.10;;;16.40;98.00;;;;;;5031416;28;20494;-61
2023/05/09 06:26:05;;;;;;;19.80;8.70;;;16.50;98.00;;;;;;5031274;28;20996;-61
2023/05/09 06:28:34;;;;;;;22.60;10.00;;;16.60;98.00;;;;;;5031358;28;20467;-60
2023/05/09 06:31:01;;;;;;;19.47;8.57;;;16.50;98.00;;;;;;5031314;28;20462;-60
2023/05/09 06:33:28;;;;;;;37.67;8.27;;;16.40;98.00;;;;;;5031372;28;20553;-60
2023/05/09 06:35:57;;;;;;;15.67;7.23;;;16.40;98.00;;;;;;5031164;28;20450;-60
2023/05/09 06:38:23;;;;;;;19.23;8.30;;;16.40;98.00;;;;;;5031341;28;20462;-60
2023/05/09 06:40:51;;;;;;;19.17;7.90;;;16.50;98.00;;;;;;5031148;28;20510;-60
2023/05/09 06:43:18;;;;;;;25.80;8.80;;;16.40;98.00;;;;;;5013479;28;20454;-60
2023/05/09 06:45:45;;;;;;;20.47;8.63;;;16.40;98.00;;;;;;5031074;28;20459;-60
2023/05/09 06:48:12;;;;;;;24.10;8.83;;;16.30;98.00;;;;;;5031197;28;20458;-59
2023/05/09 06:50:39;;;;;;;19.67;8.40;;;16.20;98.00;;;;;;5030898;28;20455;-61
2023/05/09 06:53:08;;;;;;;17.50;8.30;;;16.20;98.00;;;;;;5031068;28;20976;-59
2023/05/09 06:55:36;;;;;;;15.80;7.23;;;16.20;98.00;;;;;;5031067;28;20451;-61
2023/05/09 06:58:04;;;;;;;19.83;8.43;;;16.30;98.00;;;;;;5030866;28;20462;-60
2023/05/09 07:00:31;;;;;;;16.77;8.13;;;16.40;98.00;;;;;;5029438;28;20494;-61
2023/05/09 07:02:58;;;;;;;16.93;7.30;;;16.40;98.00;;;;;;5030940;28;20524;-60
2023/05/09 07:05:25;;;;;;;18.80;7.90;;;16.50;98.00;;;;;;5030923;28;20455;-63
2023/05/09 07:07:53;;;;;;;20.43;8.43;;;16.60;98.00;;;;;;5031278;28;20465;-60
2023/05/09 07:10:22;;;;;;;19.07;7.57;;;16.70;98.00;;;;;;5014290;28;20513;-60
2023/05/09 07:12:49;;;;;;;20.20;8.33;;;16.70;98.00;;;;;;5031199;28;20455;-62
2023/05/09 07:15:16;;;;;;;18.70;7.80;;;16.90;98.00;;;;;;5031320;28;20465;-60
2023/05/09 07:17:43;;;;;;;19.97;7.77;;;17.00;98.00;;;;;;5031069;28;20516;-61
2023/05/09 07:20:11;;;;;;;19.33;8.43;;;17.20;98.00;;;;;;5031261;28;20968;-59
2023/05/09 07:22:39;;;;;;;20.13;8.63;;;17.30;98.00;;;;;;5031249;28;20451;-56
2023/05/09 07:25:08;;;;;;;10.33;5.03;;;17.50;98.00;;;;;;5031250;28;20455;-57
2023/05/09 07:27:37;;;;;;;14.07;6.40;;;17.80;98.00;;;;;;5031182;28;20819;-59
2023/05/09 07:30:04;;;;;;;15.13;8.50;;;18.00;98.00;;;;;;5031152;28;20461;-62
2023/05/09 07:32:32;;;;;;;20.33;8.40;;;18.20;98.00;;;;;;5030684;28;20800;-60
2023/05/09 07:34:59;;;;;;;18.27;8.60;;;18.30;98.00;;;;;;5029804;28;20463;-61
2023/05/09 07:37:26;;;;;;;15.10;7.50;;;18.30;98.00;;;;;;5050337;28;20473;-61
2023/05/09 07:39:53;;;;;;;19.57;8.70;;;18.20;98.00;;;;;;5050073;28;21022;-60
2023/05/09 07:42:21;;;;;;;15.13;7.57;;;18.20;98.00;;;;;;5053421;28;20474;-62
2023/05/09 07:44:49;;;;;;;13.73;6.93;;;18.20;98.00;;;;;;5054420;28;20449;-60
2023/05/09 07:47:16;;;;;;;16.10;6.80;;;18.10;98.00;;;;;;5053829;28;20458;-61
2023/05/09 07:49:45;;;;;;;15.63;7.00;;;18.10;98.00;;;;;;5053777;28;20885;-60
2023/05/09 07:52:12;;;;;;;19.20;7.80;;;18.10;98.00;;;;;;5054434;28;20457;-60
2023/05/09 07:54:39;;;;;;;17.83;6.93;;;18.20;98.00;;;;;;5053536;28;20504;-60
2023/05/09 07:57:07;;;;;;;14.73;7.13;;;18.30;98.00;;;;;;5053918;28;21019;-62
2023/05/09 07:59:34;;;;;;;15.17;6.73;;;18.50;98.00;;;;;;5053807;28;20531;-60
2023/05/09 08:02:02;;;;;;;16.30;6.47;;;18.60;98.00;;;;;;5036071;28;20488;-61
2023/05/09 08:04:30;;;;;;;15.87;6.90;;;18.80;98.00;;;;;;5054263;28;20449;-60
2023/05/09 08:06:58;;;;;;;12.03;5.67;;;19.00;98.00;;;;;;5036149;28;20756;-60
2023/05/09 08:09:26;;;;;;;13.87;5.77;;;19.10;98.00;;;;;;5053997;28;20445;-61
2023/05/09 08:11:53;;;;;;;14.60;6.57;;;19.20;98.00;;;;;;5036142;28;20545;-60
2023/05/09 08:14:21;;;;;;;13.60;6.30;;;19.40;98.00;;;;;;5053617;28;20446;-61
2023/05/09 08:16:49;;;;;;;12.93;6.33;;;19.30;98.00;;;;;;5053844;28;20446;-61
2023/05/09 08:19:17;;;;;;;13.33;5.53;;;19.30;98.00;;;;;;5036001;28;20458;-60
2023/05/09 08:21:44;;;;;;;13.93;6.57;;;19.40;98.00;;;;;;5053445;28;20535;-60
2023/05/09 08:24:11;;;;;;;13.00;6.33;;;19.40;98.00;;;;;;5035962;28;20457;-60
2023/05/09 08:26:38;;;;;;;14.00;6.10;;;19.60;98.00;;;;;;5053464;28;20449;-60
2023/05/09 08:29:06;;;;;;;13.00;6.27;;;19.70;98.00;;;;;;5053530;28;20473;-60
2023/05/09 08:31:33;;;;;;;14.00;5.10;;;19.90;98.00;;;;;;5053480;28;20468;-62
2023/05/09 08:34:00;;;;;;;12.10;5.13;;;20.00;98.00;;;;;;5052749;28;20471;-60
2023/05/09 08:36:29;;;;;;;10.47;5.40;;;20.10;98.00;;;;;;5053296;28;20458;-60
2023/05/09 08:38:56;;;;;;;10.53;4.80;;;20.10;98.00;;;;;;5053057;28;20840;-59
2023/05/09 08:41:26;;;;;;;6.67;3.80;;;20.30;98.00;;;;;;5035488;28;20496;-61
2023/05/09 08:43:53;;;;;;;9.43;4.50;;;20.20;98.00;;;;;;5053001;28;20456;-61
2023/05/09 08:46:28;;;;;;;8.63;4.40;;;20.30;98.00;;;;;;5053266;28;20454;-62
2023/05/09 08:48:56;;;;;;;10.00;4.67;;;20.20;98.00;;;;;;5053084;28;20556;-61
2023/05/09 08:51:24;;;;;;;10.93;5.43;;;20.30;98.00;;;;;;5035304;28;20465;-60
2023/05/09 08:53:53;;;;;;;9.50;4.90;;;20.30;98.00;;;;;;5034301;28;20683;-60
2023/05/09 08:56:21;;;;;;;9.37;4.83;;;20.40;98.00;;;;;;5052633;28;20458;-60
2023/05/09 08:58:48;;;;;;;8.43;4.70;;;20.60;98.00;;;;;;5035219;28;20904;-60
2023/05/09 09:01:16;;;;;;;12.53;5.40;;;20.80;98.00;;;;;;5053159;28;20559;-60
2023/05/09 09:03:46;;;;;;;10.37;5.10;;;20.90;98.00;;;;;;5052788;28;20462;-60
2023/05/09 09:06:14;;;;;;;9.00;3.90;;;21.00;98.00;;;;;;5052735;28;20469;-62
2023/05/09 09:08:42;;;;;;;7.77;4.53;;;21.10;98.00;;;;;;5052620;28;20517;-62
2023/05/09 09:11:15;;;;;;;13.03;5.10;;;21.20;98.00;;;;;;5034898;28;20465;-59
2023/05/09 09:13:44;;;;;;;8.17;4.60;;;21.30;98.00;;;;;;5053067;28;20532;-61
2023/05/09 09:16:18;;;;;;;8.90;5.00;;;21.30;98.00;;;;;;5052588;28;20461;-60
2023/05/09 09:18:46;;;;;;;9.17;4.43;;;21.40;98.00;;;;;;5035366;28;20465;-59
2023/05/09 09:21:16;;;;;;;9.57;4.57;;;21.50;98.00;;;;;;5052296;28;20482;-60
2023/05/09 09:23:46;;;;;;;8.80;4.33;;;21.50;98.00;;;;;;5052262;28;20545;-61
2023/05/09 09:26:14;;;;;;;7.10;3.70;;;21.70;98.00;;;;;;5052243;28;20516;-61
2023/05/09 09:28:42;;;;;;;6.47;3.93;;;21.90;98.00;;;;;;5052271;28;20450;-61
2023/05/09 09:31:22;;;;;;;9.67;4.90;;;22.00;98.00;;;;;;5051945;28;20469;-60
2023/05/09 09:33:50;;;;;;;10.37;5.30;;;22.10;98.00;;;;;;5052088;28;20457;-60
2023/05/09 09:36:26;;;;;;;12.83;5.60;;;22.20;98.00;;;;;;5052294;28;20476;-61
2023/05/09 09:38:59;;;;;;;10.23;5.17;;;22.30;98.00;;;;;;5035620;28;20457;-61
2023/05/09 09:41:32;;;;;;;11.57;5.67;;;22.50;98.00;;;;;;5052195;28;20485;-60
2023/05/09 09:44:06;;;;;;;10.43;5.53;;;22.60;98.00;;;;;;5052079;28;20546;-60
2023/05/09 09:46:41;;;;;;;5.87;3.83;;;22.80;98.00;;;;;;5051810;28;20458;-61
2023/05/09 09:49:09;;;;;;;8.00;4.40;;;22.80;97.30;;;;;;5052158;28;20461;-60
2023/05/09 09:51:37;;;;;;;9.00;4.63;;;22.90;98.00;;;;;;5052038;28;20895;-60
2023/05/09 09:54:06;;;;;;;7.33;4.40;;;23.10;98.00;;;;;;5051700;28;20829;-60
2023/05/09 09:56:43;;;;;;;8.37;4.57;;;23.10;98.00;;;;;;5051707;28;20527;-60
2023/05/09 09:59:12;;;;;;;8.20;4.93;;;23.20;98.00;;;;;;5052102;28;20472;-60
2023/05/09 10:01:56;;;;;;;7.77;3.87;;;23.20;98.00;;;;;;5051683;28;20531;-61
2023/05/09 10:04:25;;;;;;;9.40;5.07;;;23.40;98.00;;;;;;5051033;28;20465;-60
2023/05/09 10:06:54;;;;;;;10.63;5.40;;;23.50;98.00;;;;;;5051296;28;20473;-61
2023/05/09 10:09:22;;;;;;;12.20;5.33;;;23.60;98.00;;;;;;5051180;28;20477;-60
2023/05/09 10:11:53;;;;;;;9.10;4.73;;;23.70;98.00;;;;;;5051420;28;20487;-61
2023/05/09 10:14:22;;;;;;;11.77;5.93;;;23.80;98.00;;;;;;5051610;28;20812;-61
2023/05/09 10:16:50;;;;;;;10.67;5.37;;;24.00;98.00;;;;;;5051548;28;20545;-60
2023/05/09 10:19:19;;;;;;;10.30;5.23;;;24.00;98.00;;;;;;5033778;28;20450;-60
2023/05/09 10:21:52;;;;;;;9.33;4.73;;;23.80;98.00;;;;;;5051205;28;20575;-61
2023/05/09 10:24:26;;;;;;;10.77;5.27;;;23.60;98.00;;;;;;5051299;28;20500;-60
2023/05/09 10:27:02;;;;;;;9.63;5.40;;;23.40;98.00;;;;;;5051179;28;20486;-61
2023/05/09 10:29:36;;;;;;;8.90;4.87;;;23.40;98.00;;;;;;5051310;28;20519;-60
2023/05/09 10:32:11;;;;;;;9.67;4.90;;;23.40;98.00;;;;;;5051232;28;20464;-60
2023/05/09 10:34:42;;;;;;;9.23;5.20;;;23.60;98.00;;;;;;5051251;28;20488;-60
2023/05/09 10:37:10;;;;;;;9.93;4.87;;;23.70;97.60;;;;;;5051322;28;20461;-61
2023/05/09 10:39:37;;;;;;;9.50;5.13;;;23.70;98.00;;;;;;5051023;28;20461;-62
2023/05/09 10:42:07;;;;;;;10.63;5.10;;;23.90;98.00;;;;;;5051041;28;20496;-60
2023/05/09 10:44:34;;;;;;;10.77;5.07;;;24.10;97.10;;;;;;5051100;28;20532;-60
2023/05/09 10:47:02;;;;;;;11.77;6.40;;;24.30;98.00;;;;;;5051110;28;21042;-60
2023/05/09 10:49:30;;;;;;;10.10;5.60;;;24.50;96.80;;;;;;5051599;28;20489;-60
2023/05/09 10:51:58;;;;;;;11.40;5.33;;;24.60;96.50;;;;;;5051042;28;20454;-61
2023/05/09 10:54:32;;;;;;;9.77;5.57;;;24.90;97.20;;;;;;5050903;28;20960;-61
2023/05/09 10:57:00;;;;;;;9.67;5.30;;;25.00;96.40;;;;;;5050966;28;20504;-60
2023/05/09 10:59:36;;;;;;;8.50;4.70;;;25.10;96.40;;;;;;5051023;28;20508;-60
2023/05/09 11:02:04;;;;;;;9.43;5.07;;;25.30;95.60;;;;;;5033421;28;20827;-61
2023/05/09 11:04:32;;;;;;;9.53;4.90;;;25.30;95.70;;;;;;5050973;28;20551;-61
2023/05/09 11:06:59;;;;;;;10.00;5.10;;;25.10;96.50;;;;;;5050760;28;20508;-59
2023/05/09 11:09:29;;;;;;;8.77;4.67;;;24.90;94.70;;;;;;5050788;28;20803;-60
2023/05/09 11:11:57;;;;;;;8.10;4.80;;;24.90;95.30;;;;;;5050924;28;20485;-60
2023/05/09 11:14:43;;;;;;;7.30;4.00;;;25.10;98.00;;;;;;5050974;28;20515;-60
2023/05/09 11:17:12;;;;;;;9.40;4.77;;;25.00;96.00;;;;;;5053267;28;20457;-62
2023/05/09 11:20:00;;;;;;;9.93;5.20;;;24.80;97.20;;;;;;5054666;28;20515;-61
2023/05/09 11:22:29;;;;;;;8.27;4.43;;;24.60;96.90;;;;;;5037480;28;21025;-61
2023/05/09 11:25:03;;;;;;;8.30;4.70;;;24.50;97.50;;;;;;5055487;28;20511;-62
2023/05/09 11:27:38;;;;;;;8.50;4.50;;;24.40;97.60;;;;;;5055381;28;20461;-62
2023/05/09 11:30:08;;;;;;;9.93;4.30;;;24.20;98.00;;;;;;5055225;28;20872;-61
2023/05/09 11:32:43;;;;;;;8.63;4.70;;;24.10;98.00;;;;;;5055295;28;20954;-61
2023/05/09 11:35:13;;;;;;;9.10;5.00;;;24.00;98.00;;;;;;5055371;28;20503;-60
2023/05/09 11:37:46;;;;;;;8.57;4.47;;;23.90;98.00;;;;;;5055193;28;20465;-61
2023/05/09 11:40:16;;;;;;;6.50;4.00;;;23.70;98.00;;;;;;5055209;28;20948;-61
2023/05/09 11:42:44;;;;;;;9.23;4.80;;;23.70;98.00;;;;;;5055257;28;21100;-61
2023/05/09 11:45:14;;;;;;;9.83;5.73;;;23.70;98.00;;;;;;5037571;28;20500;-63
2023/05/09 11:47:41;;;;;;;11.20;5.80;;;23.90;98.00;;;;;;5054938;28;20465;-62
2023/05/09 11:50:10;;;;;;;9.13;4.70;;;24.20;96.00;;;;;;5054944;28;20933;-60
2023/05/09 11:52:38;;;;;;;13.13;4.80;;;24.70;96.60;;;;;;5054481;28;20824;-61
2023/05/09 11:55:07;;;;;;;10.47;4.90;;;25.20;97.60;;;;;;5054613;28;20477;-61
2023/05/09 11:57:35;;;;;;;8.70;4.33;;;25.50;94.40;;;;;;5054576;28;20829;-61
2023/05/09 12:00:03;;;;;;;7.57;4.13;;;25.40;95.20;;;;;;5053331;28;20460;-61
2023/05/09 12:02:34;;;;;;;6.80;4.00;;;25.40;94.80;;;;;;5053386;28;20488;-61
2023/05/09 12:05:09;;;;;;;13.20;4.20;;;25.30;94.90;;;;;;5053260;28;20552;-61
2023/05/09 12:07:38;;;;;;;7.33;4.03;;;25.40;95.50;;;;;;5053167;28;20511;-62
2023/05/09 12:10:07;;;;;;;5.60;3.47;;;25.80;95.30;;;;;;5053168;28;20497;-62
2023/05/09 12:12:36;;;;;;;6.77;4.07;;;25.70;95.90;;;;;;5052958;28;20460;-61
2023/05/09 12:15:04;;;;;;;6.83;4.17;;;25.50;94.50;;;;;;5053205;28;20858;-61
2023/05/09 12:17:35;;;;;;;5.20;3.23;;;25.30;94.90;;;;;;5053377;28;20453;-61
2023/05/09 12:20:03;;;;;;;5.73;3.67;;;25.10;94.10;;;;;;5053171;28;20844;-60
2023/05/09 12:22:30;;;;;;;4.87;3.30;;;25.40;96.30;;;;;;5053256;28;21247;-61
2023/05/09 12:25:01;;;;;;;4.93;3.50;;;25.80;93.80;;;;;;5052982;28;20462;-61
2023/05/09 12:27:28;;;;;;;4.90;3.10;;;26.00;93.20;;;;;;5053037;28;20454;-61
2023/05/09 12:29:56;;;;;;;4.10;2.80;;;26.00;92.20;;;;;;5052361;28;20449;-61
2023/05/09 12:32:23;;;;;;;4.87;3.07;;;26.00;92.80;;;;;;5020432;28;20462;-62
2023/05/09 12:34:55;;;;;;;5.60;3.67;;;26.10;92.00;;;;;;5052383;28;20457;-60
2023/05/09 12:37:22;;;;;;;5.80;3.50;;;26.10;89.70;;;;;;5053298;28;20473;-61
2023/05/09 12:40:01;;;;;;;6.23;3.57;;;25.90;89.80;;;;;;5053075;28;20964;-62
2023/05/09 12:42:28;;;;;;;5.33;3.20;;;25.70;92.60;;;;;;5052871;28;20488;-61
2023/05/09 12:44:56;;;;;;;6.07;4.03;;;25.50;94.00;;;;;;5050789;28;20454;-62
2023/05/09 12:47:26;;;;;;;7.40;3.60;;;25.80;93.10;;;;;;5032663;28;20458;-61
2023/05/09 12:49:59;;;;;;;6.53;3.80;;;26.20;92.60;;;;;;5032714;28;20545;-61